Time;durP1;ratioP1;P1;durP2;ratioP2;P2;SDS_P1;SDS_P2;PMS_P1;PMS_P2;Temp;Humidity;BMP_temperature;BMP_pressure;BME280_temperature;BME280_humidity;BME280_pressure;Samples;Min_cycle;Max_cycle;Signal;HPM_P1;HPM_P2
2023/08/29 00:00:55;;;;;;;1.92;1.10;;;21.40;58.00;;;;;;5127240;27;45126;-73
2023/08/29 00:03:22;;;;;;;1.77;0.77;;;21.40;58.10;;;;;;5127551;27;45463;-72
2023/08/29 00:05:49;;;;;;;1.25;0.82;;;21.30;58.10;;;;;;5127684;27;45387;-73
2023/08/29 00:08:16;;;;;;;0.70;0.70;;;21.40;58.10;;;;;;5127130;27;46759;-72
2023/08/29 00:10:43;;;;;;;0.75;0.73;;;21.40;58.10;;;;;;5127090;27;45355;-72
2023/08/29 00:13:10;;;;;;;0.80;0.80;;;21.40;58.10;;;;;;5127291;27;45259;-73
2023/08/29 00:15:38;;;;;;;1.23;1.00;;;21.40;58.00;;;;;;5127450;27;45378;-72
2023/08/29 00:18:05;;;;;;;0.60;0.60;;;21.30;57.90;;;;;;5127315;27;45538;-72
2023/08/29 00:20:32;;;;;;;1.20;0.70;;;21.30;58.00;;;;;;5126434;27;45471;-72
2023/08/29 00:22:59;;;;;;;0.88;0.68;;;21.30;57.90;;;;;;5126778;27;45575;-72
2023/08/29 00:25:26;;;;;;;0.80;0.80;;;21.30;58.00;;;;;;5127282;27;45422;-72
2023/08/29 00:27:53;;;;;;;0.70;0.70;;;21.30;58.00;;;;;;5126904;27;45264;-73
2023/08/29 00:30:19;;;;;;;0.98;0.70;;;21.30;58.10;;;;;;5126997;27;45433;-72
2023/08/29 00:32:48;;;;;;;1.13;1.00;;;21.30;58.00;;;;;;5124436;27;45214;-73
2023/08/29 00:35:15;;;;;;;0.98;0.98;;;21.30;58.00;;;;;;5130199;27;45340;-72
2023/08/29 00:37:42;;;;;;;2.20;0.95;;;21.30;58.10;;;;;;5130663;27;45525;-73
2023/08/29 00:40:10;;;;;;;0.90;0.90;;;21.30;58.10;;;;;;5130375;27;45348;-72
2023/08/29 00:42:37;;;;;;;1.02;0.93;;;21.30;58.10;;;;;;5130646;27;45388;-72
2023/08/29 00:45:04;;;;;;;0.95;0.80;;;21.20;58.10;;;;;;5130814;27;45326;-72
2023/08/29 00:47:31;;;;;;;0.80;0.80;;;21.20;58.60;;;;;;5130367;27;45481;-72
2023/08/29 00:49:59;;;;;;;0.95;0.93;;;21.30;58.10;;;;;;5130361;27;45300;-72
2023/08/29 00:52:26;;;;;;;0.80;0.80;;;21.20;58.00;;;;;;5130335;27;45339;-72
2023/08/29 00:54:53;;;;;;;0.80;0.80;;;21.30;58.10;;;;;;5130635;27;45278;-72
2023/08/29 00:57:20;;;;;;;1.67;0.90;;;21.20;58.00;;;;;;5129887;27;45560;-72
2023/08/29 00:59:46;;;;;;;1.08;0.93;;;21.20;58.00;;;;;;5130130;27;45325;-72
2023/08/29 01:02:13;;;;;;;1.10;1.00;;;21.20;58.10;;;;;;5130095;27;45346;-72
2023/08/29 01:04:40;;;;;;;0.85;0.85;;;21.20;58.10;;;;;;5129787;27;45452;-72
2023/08/29 01:07:09;;;;;;;0.90;0.90;;;21.20;58.10;;;;;;5129984;27;45509;-72
2023/08/29 01:09:36;;;;;;;0.90;0.90;;;21.20;58.00;;;;;;5130450;27;45360;-72
2023/08/29 01:12:07;;;;;;;0.90;0.90;;;21.20;58.00;;;;;;5130282;27;45351;-72
2023/08/29 01:14:36;;;;;;;1.00;1.00;;;21.20;58.00;;;;;;5130519;27;45389;-72
2023/08/29 01:17:05;;;;;;;0.90;0.90;;;21.20;58.10;;;;;;5130207;27;45319;-72
2023/08/29 01:19:32;;;;;;;1.30;1.10;;;21.20;58.10;;;;;;5130339;27;45404;-72
2023/08/29 01:22:07;;;;;;;0.88;0.88;;;21.20;58.20;;;;;;5129887;27;45265;-72
2023/08/29 01:24:40;;;;;;;1.08;1.02;;;21.20;58.20;;;;;;5130384;27;45305;-72
2023/08/29 01:27:08;;;;;;;0.80;0.80;;;21.20;58.20;;;;;;5130276;27;46152;-72
2023/08/29 01:29:35;;;;;;;0.80;0.80;;;21.20;58.20;;;;;;5129889;27;45172;-72
2023/08/29 01:32:07;;;;;;;0.90;0.90;;;21.10;58.10;;;;;;5129961;27;45260;-72
2023/08/29 01:34:34;;;;;;;0.95;0.70;;;21.10;58.10;;;;;;5130107;27;45383;-72
2023/08/29 01:37:00;;;;;;;0.90;0.90;;;21.10;58.10;;;;;;5129570;27;48967;-72
2023/08/29 01:39:27;;;;;;;0.63;0.63;;;21.10;58.10;;;;;;5129914;27;45295;-73
2023/08/29 01:41:54;;;;;;;0.82;0.82;;;21.10;58.10;;;;;;5129633;27;45404;-72
2023/08/29 01:44:22;;;;;;;1.73;0.80;;;21.10;58.10;;;;;;5129695;27;45413;-72
2023/08/29 01:46:49;;;;;;;0.70;0.70;;;21.00;58.10;;;;;;5129565;27;47310;-73
2023/08/29 01:49:16;;;;;;;0.90;0.90;;;21.10;58.20;;;;;;5129618;27;45268;-72
2023/08/29 01:51:43;;;;;;;0.90;0.90;;;21.10;58.20;;;;;;5129486;27;45294;-72
2023/08/29 01:54:09;;;;;;;0.80;0.80;;;21.00;58.10;;;;;;5129836;27;45416;-72
2023/08/29 01:56:36;;;;;;;3.67;0.90;;;21.10;58.20;;;;;;5128318;27;45430;-72
2023/08/29 01:59:03;;;;;;;0.95;0.70;;;21.10;58.20;;;;;;5129245;27;45368;-73
2023/08/29 02:01:32;;;;;;;0.80;0.80;;;21.00;58.10;;;;;;5129315;27;45361;-72
2023/08/29 02:03:59;;;;;;;0.88;0.77;;;21.00;58.10;;;;;;5129652;27;45402;-72
2023/08/29 02:06:26;;;;;;;0.70;0.70;;;21.00;58.10;;;;;;5129091;27;45430;-73
2023/08/29 02:08:53;;;;;;;0.73;0.68;;;21.00;58.10;;;;;;5129220;27;45441;-72
2023/08/29 02:11:19;;;;;;;0.65;0.65;;;21.00;58.10;;;;;;5129323;27;44741;-72
2023/08/29 02:13:46;;;;;;;1.00;0.90;;;21.00;58.10;;;;;;5129524;27;45251;-73
2023/08/29 02:16:13;;;;;;;1.02;0.80;;;21.00;58.00;;;;;;5129092;27;46396;-73
2023/08/29 02:18:41;;;;;;;0.70;0.70;;;21.00;58.10;;;;;;5128869;27;45323;-72
2023/08/29 02:21:08;;;;;;;0.70;0.70;;;20.90;58.00;;;;;;5129139;27;45382;-73
2023/08/29 02:23:35;;;;;;;1.17;0.80;;;21.00;58.10;;;;;;5129155;27;45335;-72
2023/08/29 02:26:03;;;;;;;0.80;0.80;;;21.00;58.10;;;;;;5128866;27;46387;-72
2023/08/29 02:28:33;;;;;;;1.00;0.75;;;21.00;58.10;;;;;;5128942;27;45354;-72
2023/08/29 02:31:03;;;;;;;1.95;0.73;;;20.90;58.10;;;;;;5128968;27;45334;-72
2023/08/29 02:33:30;;;;;;;0.85;0.85;;;21.00;58.10;;;;;;5128912;27;45386;-73
2023/08/29 02:35:58;;;;;;;0.80;0.80;;;20.90;58.20;;;;;;5128605;27;46687;-72
2023/08/29 02:38:25;;;;;;;2.95;0.90;;;20.90;58.10;;;;;;5128952;27;45262;-73
2023/08/29 02:40:52;;;;;;;1.17;0.75;;;21.00;58.10;;;;;;5128728;27;45276;-72
2023/08/29 02:43:19;;;;;;;1.08;0.60;;;20.90;58.20;;;;;;5128211;27;45300;-72
2023/08/29 02:45:46;;;;;;;0.90;0.80;;;20.90;58.20;;;;;;5128648;27;46639;-72
2023/08/29 02:48:13;;;;;;;0.80;0.80;;;20.90;58.20;;;;;;5128588;27;45244;-72
2023/08/29 02:50:42;;;;;;;1.00;0.88;;;20.90;58.30;;;;;;5128681;27;45308;-72
2023/08/29 02:53:10;;;;;;;5.10;0.90;;;20.90;58.40;;;;;;5128713;27;45489;-71
2023/08/29 02:55:37;;;;;;;1.58;1.05;;;20.90;58.30;;;;;;5128216;27;46637;-72
2023/08/29 02:58:04;;;;;;;0.70;0.70;;;20.90;58.30;;;;;;5127547;27;45334;-72
2023/08/29 03:00:30;;;;;;;0.77;0.77;;;20.90;58.40;;;;;;5128668;27;45364;-72
2023/08/29 03:02:58;;;;;;;0.75;0.75;;;20.90;58.40;;;;;;5128555;27;45264;-72
2023/08/29 03:05:24;;;;;;;0.77;0.75;;;20.90;58.40;;;;;;5128358;27;45337;-72
2023/08/29 03:07:51;;;;;;;1.50;0.70;;;20.80;58.30;;;;;;5128002;27;45399;-72
2023/08/29 03:10:19;;;;;;;0.77;0.77;;;20.90;58.40;;;;;;5128259;27;45382;-72
2023/08/29 03:12:46;;;;;;;0.80;0.60;;;20.80;58.30;;;;;;5128440;27;45302;-72
2023/08/29 03:15:13;;;;;;;1.17;0.88;;;20.90;58.40;;;;;;5127617;27;46279;-72
2023/08/29 03:17:43;;;;;;;1.10;0.70;;;20.90;58.50;;;;;;5129752;27;45353;-72
2023/08/29 03:20:10;;;;;;;0.90;0.90;;;20.80;58.40;;;;;;5128565;27;45318;-71
2023/08/29 03:22:37;;;;;;;0.98;0.98;;;20.80;58.40;;;;;;5128566;27;45314;-71
2023/08/29 03:25:05;;;;;;;0.70;0.70;;;20.80;58.40;;;;;;5129067;27;45434;-72
2023/08/29 03:27:33;;;;;;;0.70;0.70;;;20.80;58.50;;;;;;5128584;27;45434;-71
2023/08/29 03:30:00;;;;;;;0.80;0.80;;;20.80;58.40;;;;;;5128344;27;45303;-71
2023/08/29 03:32:27;;;;;;;1.08;0.93;;;20.80;58.40;;;;;;5128080;27;45325;-71
2023/08/29 03:34:54;;;;;;;0.82;0.80;;;20.80;58.50;;;;;;5127876;27;46378;-71
2023/08/29 03:37:21;;;;;;;1.13;0.65;;;20.80;58.60;;;;;;5127551;27;45344;-71
2023/08/29 03:39:47;;;;;;;0.77;0.77;;;20.80;58.60;;;;;;5127980;27;45324;-72
2023/08/29 03:42:14;;;;;;;0.68;0.68;;;20.80;58.50;;;;;;5127977;27;45409;-72
2023/08/29 03:44:42;;;;;;;0.73;0.70;;;20.80;58.60;;;;;;5127341;27;46415;-72
2023/08/29 03:47:09;;;;;;;1.08;0.60;;;20.80;58.60;;;;;;5127547;27;45396;-72
2023/08/29 03:49:36;;;;;;;1.10;1.00;;;20.80;58.60;;;;;;5127560;27;44762;-72
2023/08/29 03:52:04;;;;;;;0.70;0.70;;;20.80;58.60;;;;;;5127725;27;45419;-72
2023/08/29 03:54:30;;;;;;;0.77;0.73;;;20.80;58.70;;;;;;5127328;27;46761;-72
2023/08/29 03:56:57;;;;;;;0.70;0.70;;;20.70;58.80;;;;;;5127258;27;45318;-72
2023/08/29 03:59:24;;;;;;;1.45;0.63;;;20.80;58.70;;;;;;5127461;27;45302;-72
2023/08/29 04:01:52;;;;;;;0.63;0.63;;;20.80;58.70;;;;;;5127467;27;45365;-72
2023/08/29 04:04:19;;;;;;;0.70;0.70;;;20.70;58.60;;;;;;5127044;27;45389;-72
2023/08/29 04:06:46;;;;;;;0.95;0.90;;;20.70;58.70;;;;;;5126977;27;45394;-72
2023/08/29 04:09:14;;;;;;;1.13;0.80;;;20.70;58.70;;;;;;5128920;27;45303;-72
2023/08/29 04:11:41;;;;;;;0.77;0.77;;;20.70;59.00;;;;;;5130658;27;45391;-72
2023/08/29 04:14:08;;;;;;;1.45;0.73;;;20.70;58.60;;;;;;5130310;27;45493;-71
2023/08/29 04:16:34;;;;;;;0.70;0.70;;;20.70;58.70;;;;;;5130752;27;45398;-71
2023/08/29 04:19:03;;;;;;;0.70;0.70;;;20.70;58.60;;;;;;5130974;27;45305;-71
2023/08/29 04:21:30;;;;;;;0.85;0.70;;;20.70;58.70;;;;;;5131221;27;45578;-72
2023/08/29 04:23:57;;;;;;;1.48;0.70;;;20.70;59.30;;;;;;5130677;27;45885;-72
2023/08/29 04:26:23;;;;;;;0.98;0.85;;;20.70;58.70;;;;;;5130526;27;45373;-72
2023/08/29 04:28:50;;;;;;;0.80;0.80;;;20.70;58.70;;;;;;5130904;27;45394;-71
2023/08/29 04:31:19;;;;;;;0.75;0.70;;;20.60;58.60;;;;;;5131035;27;45509;-72
2023/08/29 04:33:46;;;;;;;0.85;0.85;;;20.70;58.80;;;;;;5130349;27;45458;-71
2023/08/29 04:36:17;;;;;;;0.60;0.60;;;20.70;58.70;;;;;;5130498;27;45369;-72
2023/08/29 04:38:45;;;;;;;0.70;0.70;;;20.70;58.70;;;;;;5130525;27;45394;-72
2023/08/29 04:41:12;;;;;;;0.77;0.77;;;20.60;58.80;;;;;;5130764;27;45543;-71
2023/08/29 04:43:39;;;;;;;0.73;0.73;;;20.60;58.70;;;;;;5130122;27;45361;-72
2023/08/29 04:46:07;;;;;;;0.88;0.88;;;20.60;58.70;;;;;;5130649;27;45272;-72
2023/08/29 04:48:34;;;;;;;0.80;0.80;;;20.60;58.70;;;;;;5130625;27;45295;-72
2023/08/29 04:51:00;;;;;;;1.08;0.98;;;20.60;58.70;;;;;;5130811;27;45307;-71
2023/08/29 04:53:29;;;;;;;0.60;0.60;;;20.60;58.60;;;;;;5130194;27;46378;-71
2023/08/29 04:56:00;;;;;;;0.60;0.60;;;20.60;58.60;;;;;;5129892;27;45303;-71
2023/08/29 04:58:26;;;;;;;0.75;0.75;;;20.60;58.70;;;;;;5129690;27;45428;-71
2023/08/29 05:00:54;;;;;;;0.90;0.90;;;20.60;58.70;;;;;;5130107;27;45398;-72
2023/08/29 05:03:21;;;;;;;0.77;0.77;;;20.60;58.60;;;;;;5130143;27;45514;-71
2023/08/29 05:05:48;;;;;;;0.80;0.75;;;20.60;58.70;;;;;;5130013;27;45270;-71
2023/08/29 05:08:15;;;;;;;0.60;0.60;;;20.60;58.70;;;;;;5127641;27;45352;-71
2023/08/29 05:10:43;;;;;;;0.60;0.60;;;20.60;59.30;;;;;;5130287;27;45458;-71
2023/08/29 05:13:10;;;;;;;0.70;0.70;;;20.60;58.70;;;;;;5129974;27;45502;-71
2023/08/29 05:15:37;;;;;;;1.58;0.95;;;20.60;58.70;;;;;;5129793;27;45271;-71
2023/08/29 05:18:04;;;;;;;0.60;0.60;;;20.60;59.30;;;;;;5130074;27;45305;-72
2023/08/29 05:20:31;;;;;;;1.45;0.80;;;20.60;58.80;;;;;;5129120;27;45493;-72
2023/08/29 05:22:58;;;;;;;0.80;0.80;;;20.50;58.80;;;;;;5129505;27;46675;-71
2023/08/29 05:25:24;;;;;;;0.98;0.65;;;20.60;58.80;;;;;;5129866;27;45392;-71
2023/08/29 05:27:53;;;;;;;0.90;0.90;;;20.50;58.80;;;;;;5127185;27;45264;-72
2023/08/29 05:30:20;;;;;;;1.05;0.88;;;20.50;58.80;;;;;;5130175;27;45469;-71
2023/08/29 05:32:46;;;;;;;2.35;0.80;;;20.50;58.80;;;;;;5129434;27;45323;-72
2023/08/29 05:35:13;;;;;;;0.77;0.77;;;20.50;58.80;;;;;;5129493;27;45370;-72
2023/08/29 05:37:40;;;;;;;0.63;0.63;;;20.50;58.70;;;;;;5129550;27;45360;-71
2023/08/29 05:40:08;;;;;;;1.00;0.90;;;20.50;59.20;;;;;;5129904;27;45290;-71
2023/08/29 05:42:35;;;;;;;0.80;0.80;;;20.50;58.70;;;;;;5128522;27;47788;-71
2023/08/29 05:45:04;;;;;;;0.85;0.77;;;20.50;58.80;;;;;;5129397;27;45370;-71
2023/08/29 05:47:31;;;;;;;0.77;0.70;;;20.50;58.80;;;;;;5129552;27;45344;-71
2023/08/29 05:49:57;;;;;;;2.22;0.82;;;20.50;58.80;;;;;;5129664;27;45252;-72
2023/08/29 05:52:24;;;;;;;1.60;0.80;;;20.50;58.70;;;;;;5129138;27;45305;-71
2023/08/29 05:54:51;;;;;;;0.70;0.70;;;20.50;58.80;;;;;;5129331;27;45334;-71
2023/08/29 05:57:18;;;;;;;3.00;0.88;;;20.50;58.80;;;;;;5128730;27;45466;-71
2023/08/29 05:59:45;;;;;;;1.58;0.85;;;20.50;58.90;;;;;;5129674;27;45512;-71
2023/08/29 06:02:13;;;;;;;0.70;0.70;;;20.50;58.90;;;;;;5128588;27;47047;-71
2023/08/29 06:04:40;;;;;;;2.38;0.80;;;20.50;59.50;;;;;;5128943;27;45415;-71
2023/08/29 06:07:07;;;;;;;1.48;0.90;;;20.50;58.90;;;;;;5129158;27;45320;-72
2023/08/29 06:09:34;;;;;;;0.70;0.70;;;20.50;58.90;;;;;;5129291;27;45248;-71
2023/08/29 06:12:00;;;;;;;0.52;0.52;;;20.50;59.50;;;;;;5128821;27;45783;-71
2023/08/29 06:14:27;;;;;;;1.10;1.00;;;20.50;58.90;;;;;;5128920;27;45363;-71
2023/08/29 06:16:54;;;;;;;5.45;0.77;;;20.50;58.90;;;;;;5129525;27;45275;-71
2023/08/29 06:19:22;;;;;;;4.72;0.80;;;20.50;59.10;;;;;;5129561;27;45252;-70
2023/08/29 06:21:49;;;;;;;3.40;0.80;;;20.50;59.30;;;;;;5128888;27;46647;-71
2023/08/29 06:24:16;;;;;;;2.00;1.58;;;20.60;59.10;;;;;;5129446;27;45332;-73
2023/08/29 06:26:43;;;;;;;4.65;1.63;;;20.60;59.10;;;;;;5128210;27;45338;-70
2023/08/29 06:29:09;;;;;;;4.10;3.30;;;20.60;59.90;;;;;;5129449;27;45403;-71
2023/08/29 06:31:36;;;;;;;2.25;1.80;;;20.70;59.50;;;;;;5127384;27;45507;-71
2023/08/29 06:34:05;;;;;;;1.65;1.55;;;20.70;59.40;;;;;;5128361;27;45384;-71
2023/08/29 06:36:33;;;;;;;1.50;1.40;;;20.70;59.70;;;;;;5128373;27;45367;-71
2023/08/29 06:39:00;;;;;;;1.60;1.50;;;20.60;59.80;;;;;;5128533;27;45453;-70
2023/08/29 06:41:27;;;;;;;1.60;1.50;;;20.60;59.80;;;;;;5128207;27;46690;-70
2023/08/29 06:43:54;;;;;;;1.85;1.42;;;20.60;59.80;;;;;;5128061;27;45377;-71
2023/08/29 06:46:21;;;;;;;1.90;1.40;;;20.60;59.90;;;;;;5128532;27;45411;-71
2023/08/29 06:48:47;;;;;;;1.45;1.17;;;20.50;60.00;;;;;;5128499;27;45415;-72
2023/08/29 06:51:14;;;;;;;1.27;1.17;;;20.50;60.10;;;;;;5128123;27;45268;-71
2023/08/29 06:53:42;;;;;;;1.30;1.20;;;20.50;60.00;;;;;;5127909;27;45417;-71
2023/08/29 06:56:09;;;;;;;1.65;1.10;;;20.60;59.90;;;;;;5127777;27;45307;-73
2023/08/29 06:58:36;;;;;;;0.90;0.90;;;20.60;59.80;;;;;;5128491;27;45297;-72
2023/08/29 07:01:03;;;;;;;3.20;1.25;;;20.60;59.70;;;;;;5127921;27;46611;-72
2023/08/29 07:03:30;;;;;;;1.20;1.10;;;20.60;59.70;;;;;;5128011;27;45285;-72
2023/08/29 07:05:57;;;;;;;1.10;1.00;;;20.60;59.70;;;;;;5128384;27;45409;-72
2023/08/29 07:08:24;;;;;;;1.17;1.00;;;20.60;59.60;;;;;;5128203;27;45414;-72
2023/08/29 07:10:52;;;;;;;0.82;0.82;;;20.60;59.70;;;;;;5127363;27;45357;-72
2023/08/29 07:13:19;;;;;;;1.35;1.10;;;20.60;59.60;;;;;;5128165;27;45342;-72
2023/08/29 07:15:46;;;;;;;1.55;1.13;;;20.60;59.50;;;;;;5128207;27;45259;-72
2023/08/29 07:18:13;;;;;;;1.52;0.98;;;20.70;59.50;;;;;;5128281;27;45365;-72
2023/08/29 07:20:40;;;;;;;1.20;1.10;;;20.70;59.40;;;;;;5127743;27;46691;-72
2023/08/29 07:23:07;;;;;;;0.82;0.82;;;20.70;59.40;;;;;;5127697;27;45321;-72
2023/08/29 07:25:38;;;;;;;1.20;0.90;;;20.70;59.40;;;;;;5127975;27;45422;-72
2023/08/29 07:28:07;;;;;;;1.13;0.98;;;20.70;59.40;;;;;;5128176;27;45602;-72
2023/08/29 07:30:35;;;;;;;0.73;0.73;;;20.70;59.20;;;;;;5127558;27;45609;-72
2023/08/29 07:33:02;;;;;;;1.00;1.00;;;20.70;59.20;;;;;;5127787;27;45369;-72
2023/08/29 07:35:29;;;;;;;0.80;0.80;;;20.70;59.20;;;;;;5128147;27;45342;-72
2023/08/29 07:37:56;;;;;;;0.77;0.77;;;20.70;59.10;;;;;;5127803;27;45520;-73
2023/08/29 07:40:22;;;;;;;0.70;0.70;;;20.70;59.20;;;;;;5127777;27;46711;-72
2023/08/29 07:42:49;;;;;;;0.85;0.85;;;20.70;59.10;;;;;;5127334;27;45386;-72
2023/08/29 07:45:18;;;;;;;1.17;0.90;;;20.70;59.10;;;;;;5127618;27;45336;-72
2023/08/29 07:47:44;;;;;;;1.45;0.77;;;20.70;58.90;;;;;;5127955;27;45566;-72
2023/08/29 07:50:11;;;;;;;3.97;0.88;;;20.70;59.00;;;;;;5127364;27;45429;-72
2023/08/29 07:52:38;;;;;;;0.73;0.70;;;20.70;58.90;;;;;;5127632;27;45289;-72
2023/08/29 07:55:07;;;;;;;1.35;0.80;;;20.70;59.00;;;;;;5127005;27;45363;-72
2023/08/29 07:57:33;;;;;;;0.60;0.60;;;20.70;59.00;;;;;;5127431;27;45458;-72
2023/08/29 08:00:00;;;;;;;0.70;0.70;;;20.70;59.10;;;;;;5127455;27;45410;-72
2023/08/29 08:02:29;;;;;;;1.02;0.88;;;20.70;59.10;;;;;;5124766;27;45279;-72
2023/08/29 08:04:55;;;;;;;0.70;0.70;;;20.70;58.90;;;;;;5127157;27;45336;-71
2023/08/29 08:07:23;;;;;;;0.75;0.70;;;20.80;59.00;;;;;;5127218;27;45312;-71
2023/08/29 08:09:49;;;;;;;1.70;0.90;;;20.70;58.90;;;;;;5127271;27;45637;-72
2023/08/29 08:12:16;;;;;;;0.85;0.85;;;20.80;59.10;;;;;;5126989;27;45280;-71
2023/08/29 08:14:43;;;;;;;1.80;1.05;;;20.80;59.00;;;;;;5127330;27;45299;-72
2023/08/29 08:17:10;;;;;;;0.85;0.85;;;20.80;58.90;;;;;;5127249;27;45250;-71
2023/08/29 08:19:38;;;;;;;0.70;0.70;;;20.80;59.00;;;;;;5127028;27;45571;-74
2023/08/29 08:22:05;;;;;;;0.90;0.73;;;20.80;59.00;;;;;;5126855;27;45407;-73
2023/08/29 08:24:32;;;;;;;0.70;0.70;;;20.80;59.00;;;;;;5126881;27;45471;-74
2023/08/29 08:26:59;;;;;;;1.98;1.00;;;20.80;58.90;;;;;;5127110;27;45334;-73
2023/08/29 08:29:25;;;;;;;0.75;0.75;;;20.80;59.00;;;;;;5126848;27;46655;-74
2023/08/29 08:31:52;;;;;;;0.70;0.70;;;20.80;59.00;;;;;;5126710;27;45393;-73
2023/08/29 08:34:19;;;;;;;0.95;0.82;;;20.80;59.00;;;;;;5127031;27;44924;-72
2023/08/29 08:36:47;;;;;;;0.88;0.88;;;20.90;58.90;;;;;;5126907;27;45402;-72
2023/08/29 08:39:14;;;;;;;0.90;0.90;;;20.90;58.80;;;;;;5126081;27;46346;-73
2023/08/29 08:41:41;;;;;;;0.70;0.70;;;20.90;58.80;;;;;;5126738;27;45334;-74
2023/08/29 08:44:10;;;;;;;0.60;0.60;;;20.90;58.90;;;;;;5126955;27;45319;-75
2023/08/29 08:46:37;;;;;;;0.98;0.85;;;20.90;58.80;;;;;;5126990;27;45423;-73
2023/08/29 08:49:03;;;;;;;0.63;0.63;;;20.90;58.90;;;;;;5126476;27;45476;-73
2023/08/29 08:51:30;;;;;;;1.00;0.93;;;20.80;58.90;;;;;;5126666;27;45325;-73
2023/08/29 08:53:58;;;;;;;0.73;0.73;;;20.90;58.90;;;;;;5126326;27;45318;-73
2023/08/29 08:56:25;;;;;;;1.13;0.63;;;20.90;58.90;;;;;;5129956;27;45384;-74
2023/08/29 08:58:52;;;;;;;1.23;0.93;;;20.80;59.00;;;;;;5130099;27;46634;-72
2023/08/29 09:01:19;;;;;;;0.77;0.77;;;20.90;59.10;;;;;;5129887;27;45330;-74
2023/08/29 09:03:46;;;;;;;0.60;0.60;;;20.90;59.00;;;;;;5130227;27;45405;-73
2023/08/29 09:06:14;;;;;;;1.67;0.80;;;20.90;58.90;;;;;;5129775;27;45293;-73
2023/08/29 09:08:41;;;;;;;0.90;0.80;;;20.90;58.90;;;;;;5127917;27;45347;-72
2023/08/29 09:11:10;;;;;;;0.70;0.70;;;21.00;58.80;;;;;;5129460;27;45325;-74
2023/08/29 09:13:37;;;;;;;0.82;0.70;;;21.00;58.70;;;;;;5130387;27;45272;-74
2023/08/29 09:16:04;;;;;;;1.45;0.90;;;21.00;58.80;;;;;;5130597;27;45455;-72
2023/08/29 09:18:31;;;;;;;1.00;1.00;;;21.00;58.60;;;;;;5129701;27;45389;-74
2023/08/29 09:21:00;;;;;;;1.25;1.10;;;21.00;59.40;;;;;;5129813;27;45322;-72
2023/08/29 09:23:29;;;;;;;0.95;0.90;;;21.10;59.40;;;;;;5129098;27;45345;-71
2023/08/29 09:25:56;;;;;;;0.85;0.85;;;21.10;59.50;;;;;;5129707;27;45223;-72
2023/08/29 09:28:27;;;;;;;1.00;1.00;;;21.10;59.50;;;;;;5129849;27;45454;-72
2023/08/29 09:30:54;;;;;;;1.20;1.10;;;21.10;59.80;;;;;;5129907;27;45329;-72
2023/08/29 09:33:21;;;;;;;1.02;1.00;;;21.20;59.40;;;;;;5129557;27;45365;-72
2023/08/29 09:35:49;;;;;;;1.42;1.20;;;21.20;60.50;;;;;;5129821;27;45349;-72
2023/08/29 09:38:16;;;;;;;1.27;1.17;;;21.20;59.70;;;;;;5129353;27;47114;-73
2023/08/29 09:40:46;;;;;;;2.50;1.30;;;21.20;59.80;;;;;;5129359;27;45322;-71
2023/08/29 09:43:14;;;;;;;1.15;1.10;;;21.20;60.30;;;;;;5129395;27;45317;-72
2023/08/29 09:45:43;;;;;;;1.17;1.17;;;21.20;59.70;;;;;;5129268;27;45382;-73
2023/08/29 09:48:10;;;;;;;1.63;1.40;;;21.20;59.70;;;;;;5129085;27;45323;-73
2023/08/29 09:50:36;;;;;;;1.40;1.30;;;21.30;59.50;;;;;;5129123;27;45365;-71
2023/08/29 09:53:03;;;;;;;1.73;1.20;;;21.30;59.40;;;;;;5129667;27;45340;-73
2023/08/29 09:55:33;;;;;;;3.00;1.42;;;21.30;59.30;;;;;;5129656;27;45394;-72
2023/08/29 09:58:00;;;;;;;1.08;1.02;;;21.30;59.20;;;;;;5128995;27;46653;-71
2023/08/29 10:00:27;;;;;;;2.15;1.23;;;21.30;59.10;;;;;;5128795;27;45363;-71
2023/08/29 10:02:56;;;;;;;1.67;1.15;;;21.30;59.20;;;;;;5129002;27;45255;-71
2023/08/29 10:05:25;;;;;;;1.40;1.30;;;21.30;59.10;;;;;;5128925;27;45505;-71
2023/08/29 10:07:53;;;;;;;3.22;1.58;;;21.40;59.40;;;;;;5127879;27;46370;-71
2023/08/29 10:10:19;;;;;;;2.53;1.55;;;21.40;59.20;;;;;;5128753;27;45330;-71
2023/08/29 10:12:45;;;;;;;1.40;1.30;;;21.40;59.00;;;;;;5128253;27;45311;-71
2023/08/29 10:15:12;;;;;;;1.33;1.27;;;21.40;59.10;;;;;;5126391;27;45290;-71
2023/08/29 10:17:39;;;;;;;4.28;1.70;;;21.40;59.10;;;;;;5128608;27;45792;-72
2023/08/29 10:20:10;;;;;;;1.90;1.25;;;21.40;59.10;;;;;;5129006;27;45309;-71
2023/08/29 10:22:38;;;;;;;1.30;1.20;;;21.50;59.00;;;;;;5128979;27;45333;-72
2023/08/29 10:25:05;;;;;;;1.33;1.23;;;21.50;59.00;;;;;;5128978;27;45327;-72
2023/08/29 10:27:32;;;;;;;1.65;1.20;;;21.50;59.00;;;;;;5128472;27;45319;-72
2023/08/29 10:29:59;;;;;;;4.10;1.65;;;21.50;59.00;;;;;;5128480;27;45314;-71
2023/08/29 10:32:26;;;;;;;3.80;1.67;;;21.50;58.80;;;;;;5128414;27;45329;-69
2023/08/29 10:34:53;;;;;;;3.05;1.35;;;21.60;58.80;;;;;;5129152;27;45535;-73
2023/08/29 10:37:22;;;;;;;3.05;1.73;;;21.60;58.80;;;;;;5128572;27;45511;-74
2023/08/29 10:39:50;;;;;;;1.48;1.38;;;21.60;58.70;;;;;;5128644;27;45325;-73
2023/08/29 10:42:17;;;;;;;3.17;1.35;;;21.60;58.70;;;;;;5128682;27;45309;-73
2023/08/29 10:44:44;;;;;;;1.40;1.30;;;21.60;58.60;;;;;;5128580;27;45369;-72
2023/08/29 10:47:14;;;;;;;1.40;1.30;;;21.60;58.60;;;;;;5128555;27;45418;-71
2023/08/29 10:49:42;;;;;;;1.70;1.60;;;21.60;58.70;;;;;;5128401;27;45303;-72
2023/08/29 10:52:09;;;;;;;1.98;1.67;;;21.70;58.90;;;;;;5128538;27;45475;-73
2023/08/29 10:54:37;;;;;;;1.85;1.70;;;21.60;59.50;;;;;;5129369;27;45397;-73
2023/08/29 10:57:26;;;;;;;1.77;1.38;;;21.70;58.90;;;;;;5127637;27;46392;-72
2023/08/29 10:59:52;;;;;;;2.05;1.40;;;21.70;58.80;;;;;;5128786;27;45315;-71
2023/08/29 11:02:29;;;;;;;2.10;2.00;;;21.70;58.80;;;;;;5128588;27;45332;-72
2023/08/29 11:05:15;;;;;;;1.95;1.85;;;21.70;58.60;;;;;;5128379;27;45378;-73
2023/08/29 11:07:43;;;;;;;1.90;1.80;;;21.70;58.50;;;;;;5127930;27;46263;-71
2023/08/29 11:10:20;;;;;;;2.97;1.85;;;21.80;58.50;;;;;;5128174;27;45321;-72
2023/08/29 11:13:07;;;;;;;4.90;2.10;;;21.70;58.30;;;;;;5128318;27;45323;-72
2023/08/29 11:16:08;;;;;;;1.67;1.55;;;21.70;58.20;;;;;;5128462;27;45395;-73
2023/08/29 11:18:35;;;;;;;2.75;1.45;;;21.80;58.40;;;;;;5124718;27;46503;-74
2023/08/29 11:21:06;;;;;;;2.45;1.80;;;21.80;58.30;;;;;;5126428;27;45269;-73
2023/08/29 11:23:35;;;;;;;2.30;1.77;;;21.80;58.30;;;;;;5126791;27;45433;-73
2023/08/29 11:26:03;;;;;;;1.95;1.80;;;21.80;58.20;;;;;;5126896;27;45264;-72
2023/08/29 11:28:31;;;;;;;1.77;1.67;;;21.80;58.20;;;;;;5125687;27;46401;-73
2023/08/29 11:30:58;;;;;;;2.22;1.92;;;21.80;58.10;;;;;;5127285;27;45309;-73
2023/08/29 11:33:31;;;;;;;1.65;1.55;;;21.90;58.10;;;;;;5125873;27;45294;-71
2023/08/29 11:35:57;;;;;;;3.20;1.90;;;21.80;58.00;;;;;;5126446;27;45371;-73
2023/08/29 11:38:30;;;;;;;2.70;1.60;;;21.90;58.00;;;;;;5125336;27;46406;-72
2023/08/29 11:40:57;;;;;;;2.00;1.80;;;21.90;58.10;;;;;;5127642;27;45420;-73
2023/08/29 11:43:25;;;;;;;1.70;1.60;;;21.90;58.60;;;;;;5127263;27;45360;-71
2023/08/29 11:45:53;;;;;;;1.52;1.42;;;21.90;58.00;;;;;;5126459;27;45647;-70
2023/08/29 11:48:24;;;;;;;1.50;1.40;;;22.00;57.90;;;;;;5126327;27;45461;-73
2023/08/29 11:50:55;;;;;;;1.60;1.40;;;22.00;58.00;;;;;;5120478;27;45362;-70
2023/08/29 11:53:23;;;;;;;1.60;1.50;;;22.00;57.90;;;;;;5127379;27;45386;-70
2023/08/29 11:55:50;;;;;;;2.25;1.52;;;22.00;57.90;;;;;;5126263;27;45391;-70
2023/08/29 11:58:17;;;;;;;3.00;1.60;;;22.00;57.70;;;;;;5126952;27;45465;-70
2023/08/29 12:00:48;;;;;;;1.65;1.52;;;22.10;57.70;;;;;;5125366;27;45799;-70
2023/08/29 12:03:16;;;;;;;1.67;1.50;;;22.10;57.60;;;;;;5123853;27;45502;-70
2023/08/29 12:05:43;;;;;;;1.65;1.55;;;22.10;57.30;;;;;;5125918;27;45652;-70
2023/08/29 12:08:10;;;;;;;1.60;1.50;;;22.10;57.10;;;;;;5124941;27;47491;-70
2023/08/29 12:10:36;;;;;;;4.10;1.83;;;22.10;57.30;;;;;;5126441;27;45361;-72
2023/08/29 12:13:12;;;;;;;1.60;1.50;;;22.10;57.10;;;;;;5126701;27;45421;-70
2023/08/29 12:15:39;;;;;;;2.45;1.85;;;22.10;57.00;;;;;;5124186;27;45310;-70
2023/08/29 12:18:09;;;;;;;3.00;1.83;;;22.10;56.50;;;;;;5125625;27;46638;-70
2023/08/29 12:20:37;;;;;;;3.00;1.88;;;22.10;56.30;;;;;;5120638;27;45330;-70
2023/08/29 12:23:04;;;;;;;3.28;1.50;;;22.10;56.30;;;;;;5114171;27;45580;-69
2023/08/29 12:25:31;;;;;;;1.98;1.75;;;22.10;56.80;;;;;;5126366;27;45261;-69
2023/08/29 12:27:58;;;;;;;7.18;2.00;;;22.10;55.60;;;;;;5125114;27;46396;-68
2023/08/29 12:30:25;;;;;;;2.08;1.80;;;22.10;55.40;;;;;;5128041;27;45320;-68
2023/08/29 12:32:52;;;;;;;2.35;1.88;;;22.10;55.30;;;;;;5129848;27;45382;-70
2023/08/29 12:35:21;;;;;;;4.70;1.98;;;22.00;55.80;;;;;;5121020;27;45524;-70
2023/08/29 12:37:48;;;;;;;5.22;1.50;;;22.10;56.90;;;;;;5126987;27;46366;-69
2023/08/29 12:40:15;;;;;;;2.65;1.88;;;22.10;56.50;;;;;;5130677;27;45648;-70
2023/08/29 12:42:42;;;;;;;6.05;1.70;;;22.20;56.80;;;;;;5133722;27;45452;-70
2023/08/29 12:45:09;;;;;;;1.88;1.60;;;22.20;56.40;;;;;;5128584;27;45493;-71
2023/08/29 12:47:38;;;;;;;1.70;1.60;;;22.30;56.20;;;;;;5134389;27;45159;-76
2023/08/29 12:50:05;;;;;;;1.40;1.30;;;22.40;55.60;;;;;;5129498;27;45400;-69